Time;durP1;ratioP1;P1;durP2;ratioP2;P2;SDS_P1;SDS_P2;PMS_P1;PMS_P2;Temp;Humidity;BMP_temperature;BMP_pressure;BME280_temperature;BME280_humidity;BME280_pressure;Samples;Min_cycle;Max_cycle;Signal;HPM_P1;HPM_P2
2024/01/26 04:01:50;;;;;;;4.77;3.57;;;23.30;29.00;;;;;;5359599;23;46876;-83
2024/01/26 04:04:16;;;;;;;4.63;3.53;;;23.40;29.00;;;;;;4972278;28;45279;-84
2024/01/26 04:06:50;;;;;;;5.00;3.60;;;23.40;29.00;;;;;;4970361;28;45333;-84
2024/01/26 04:09:16;;;;;;;4.77;3.63;;;23.30;29.00;;;;;;4977196;28;45248;-83
2024/01/26 04:11:41;;;;;;;5.35;3.65;;;23.30;29.00;;;;;;4990967;28;45526;-84
2024/01/26 04:14:09;;;;;;;4.88;3.47;;;23.30;29.00;;;;;;4989249;28;45148;-86
2024/01/26 04:16:34;;;;;;;5.07;3.33;;;23.30;29.00;;;;;;5008294;28;45163;-84
2024/01/26 04:19:00;;;;;;;4.33;3.23;;;23.30;29.00;;;;;;4994529;28;44848;-84
2024/01/26 04:21:25;;;;;;;5.67;3.37;;;23.30;29.10;;;;;;4978883;28;46480;-84
2024/01/26 04:23:52;;;;;;;5.20;3.50;;;23.30;29.10;;;;;;4966545;28;45209;-82
2024/01/26 04:26:18;;;;;;;5.20;3.60;;;23.30;29.10;;;;;;4982574;28;45513;-83
2024/01/26 04:28:43;;;;;;;4.75;3.30;;;23.30;29.10;;;;;;4969206;28;45041;-82
2024/01/26 04:31:09;;;;;;;4.50;3.22;;;23.30;29.10;;;;;;4962436;28;46782;-84
2024/01/26 04:33:35;;;;;;;4.60;3.40;;;23.30;29.10;;;;;;4993672;28;45483;-83
2024/01/26 04:36:01;;;;;;;4.87;3.47;;;23.30;29.20;;;;;;4964850;28;45034;-86
2024/01/26 04:38:26;;;;;;;5.53;3.43;;;23.30;29.10;;;;;;4959461;28;45561;-85
2024/01/26 04:40:52;;;;;;;4.10;2.90;;;23.30;29.10;;;;;;4964991;28;46076;-83
2024/01/26 04:43:18;;;;;;;4.33;3.20;;;23.30;29.10;;;;;;4974609;28;45079;-83
2024/01/26 04:45:44;;;;;;;4.80;3.38;;;23.30;29.40;;;;;;4963867;28;44999;-83
2024/01/26 04:48:10;;;;;;;4.43;3.10;;;23.30;29.20;;;;;;4969615;28;45084;-83
2024/01/26 04:50:35;;;;;;;4.97;3.30;;;23.30;29.20;;;;;;5008582;28;45316;-83
2024/01/26 04:53:01;;;;;;;4.17;3.03;;;23.20;29.10;;;;;;4983307;28;45294;-83
2024/01/26 04:55:30;;;;;;;4.57;3.17;;;23.20;29.10;;;;;;4982044;28;45206;-86
2024/01/26 04:57:56;;;;;;;4.63;3.00;;;23.20;29.20;;;;;;4998195;28;45738;-83
2024/01/26 05:00:23;;;;;;;4.00;2.85;;;23.20;29.10;;;;;;4999064;28;46203;-84
2024/01/26 05:02:49;;;;;;;4.80;2.72;;;22.80;29.60;;;;;;5023940;28;45263;-83
2024/01/26 05:05:14;;;;;;;;;;;22.60;29.90;;;;;;5007889;28;45186;-83
2024/01/26 05:07:40;;;;;;;3.60;2.40;;;22.40;30.20;;;;;;5008730;28;44981;-83
2024/01/26 05:10:11;;;;;;;4.13;2.70;;;22.30;30.10;;;;;;5031635;28;45871;-84
2024/01/26 05:12:37;;;;;;;3.35;2.42;;;22.30;30.10;;;;;;5045832;28;44965;-82
2024/01/26 05:15:04;;;;;;;4.55;3.25;;;22.20;30.10;;;;;;5026296;28;45213;-86
2024/01/26 05:17:30;;;;;;;4.05;3.03;;;22.50;30.00;;;;;;4996930;28;46433;-82
2024/01/26 05:19:56;;;;;;;4.70;3.10;;;22.70;29.80;;;;;;5017201;28;45220;-85
2024/01/26 05:22:22;;;;;;;4.00;2.88;;;22.80;29.70;;;;;;5029700;28;44919;-84
2024/01/26 05:24:48;;;;;;;3.72;2.80;;;22.80;29.70;;;;;;5007806;28;44804;-84
2024/01/26 05:27:14;;;;;;;;;;;22.80;29.60;;;;;;5042443;28;45240;-82
2024/01/26 05:29:40;;;;;;;;;;;22.50;30.00;;;;;;5029126;28;46428;-82
2024/01/26 05:32:05;;;;;;;;;;;22.20;30.40;;;;;;5040483;28;45591;-83
2024/01/26 05:34:31;;;;;;;;;;;22.20;30.70;;;;;;5031962;28;45278;-84
2024/01/26 05:36:57;;;;;;;;;;;22.10;30.80;;;;;;5010616;28;45105;-82
2024/01/26 05:39:22;;;;;;;;;;;22.00;30.90;;;;;;5027332;28;46382;-82
2024/01/26 05:41:48;;;;;;;;;;;22.00;30.90;;;;;;5008955;28;46320;-82
2024/01/26 05:44:14;;;;;;;;;;;22.00;30.90;;;;;;5046629;28;45093;-82
2024/01/26 05:46:40;;;;;;;;;;;21.90;30.90;;;;;;5024462;28;44806;-82
2024/01/26 05:49:05;;;;;;;;;;;21.90;31.00;;;;;;5025835;28;46466;-83
2024/01/26 05:51:31;;;;;;;;;;;21.90;31.00;;;;;;5029377;28;45074;-82
2024/01/26 05:53:57;;;;;;;;;;;21.90;31.10;;;;;;5046777;28;44672;-83
2024/01/26 05:56:22;;;;;;;;;;;21.80;31.00;;;;;;5041130;28;45135;-83
2024/01/26 05:58:47;;;;;;;;;;;21.80;31.10;;;;;;5010750;28;46520;-84
2024/01/26 06:01:13;;;;;;;;;;;21.80;31.10;;;;;;5027269;28;45163;-82
2024/01/26 06:03:39;;;;;;;;;;;21.80;31.10;;;;;;5026706;28;44772;-82
2024/01/26 06:06:05;;;;;;;;;;;21.80;31.20;;;;;;5014133;28;45135;-83
2024/01/26 06:08:30;;;;;;;;;;;21.80;31.20;;;;;;5014317;28;45866;-82
2024/01/26 06:10:57;;;;;;;;;;;21.80;31.20;;;;;;5022402;28;45060;-83
2024/01/26 06:13:23;;;;;;;;;;;21.80;31.30;;;;;;5046169;28;45403;-83
2024/01/26 06:15:49;;;;;;;;;;;21.70;31.30;;;;;;5038877;28;45193;-82
2024/01/26 06:18:15;;;;;;;;;;;21.70;31.30;;;;;;5011388;28;45218;-83
2024/01/26 06:20:40;;;;;;;;;;;21.70;31.30;;;;;;5027105;28;45077;-83
2024/01/26 06:23:06;;;;;;;;;;;21.70;31.30;;;;;;5015787;28;45106;-82
2024/01/26 06:25:32;;;;;;;;;;;21.70;31.40;;;;;;5050463;28;46287;-83
2024/01/26 06:27:58;;;;;;;;;;;21.70;31.40;;;;;;5038491;28;46180;-82
2024/01/26 06:30:24;;;;;;;;;;;21.70;31.40;;;;;;5010175;28;44615;-82
2024/01/26 06:32:50;;;;;;;;;;;21.70;31.50;;;;;;5008623;28;45584;-82
2024/01/26 06:35:15;;;;;;;;;;;21.70;31.50;;;;;;5028386;28;45204;-83
2024/01/26 06:37:41;;;;;;;;;;;21.60;31.50;;;;;;5023016;28;46527;-85
2024/01/26 06:40:10;;;;;;;;;;;21.70;31.50;;;;;;5025109;28;45027;-85
2024/01/26 06:42:37;;;;;;;;;;;21.60;31.50;;;;;;5013935;28;44771;-84
2024/01/26 06:45:05;;;;;;;;;;;21.60;31.60;;;;;;5027847;28;45229;-85
2024/01/26 06:47:33;;;;;;;;;;;21.60;31.60;;;;;;5012084;28;46494;-82
2024/01/26 06:49:59;;;;;;;;;;;21.60;31.60;;;;;;5011429;28;45208;-83
2024/01/26 06:52:25;;;;;;;;;;;21.60;31.60;;;;;;5007303;28;44769;-82
2024/01/26 06:54:51;;;;;;;;;;;21.60;31.60;;;;;;5016012;28;45048;-83
2024/01/26 06:57:16;;;;;;;;;;;21.60;31.70;;;;;;5033819;28;47834;-82
2024/01/26 06:59:42;;;;;;;;;;;21.60;31.70;;;;;;5029333;28;44975;-82
2024/01/26 07:02:08;;;;;;;;;;;21.60;31.80;;;;;;5036732;28;45233;-83
2024/01/26 07:04:33;;;;;;;;;;;21.50;31.70;;;;;;5030925;28;44883;-83
2024/01/26 07:06:58;;;;;;;;;;;21.50;31.70;;;;;;5029381;28;45613;-84
2024/01/26 07:09:24;;;;;;;;;;;21.50;31.70;;;;;;5047210;28;44601;-83
2024/01/26 07:11:50;;;;;;;;;;;21.50;31.70;;;;;;5028639;28;45061;-83
2024/01/26 07:14:16;;;;;;;;;;;21.50;31.70;;;;;;5033026;28;45045;-82
2024/01/26 07:16:42;;;;;;;;;;;21.50;31.80;;;;;;5035430;28;46237;-84
2024/01/26 07:19:08;;;;;;;;;;;21.50;31.80;;;;;;5058551;28;45061;-87
2024/01/26 07:21:34;;;;;;;;;;;21.50;31.80;;;;;;5044688;28;44864;-82
2024/01/26 07:23:59;;;;;;;;;;;21.50;31.80;;;;;;5048729;28;44972;-82
2024/01/26 07:26:26;;;;;;;;;;;21.40;31.80;;;;;;5012247;28;47191;-82
2024/01/26 07:28:52;;;;;;;;;;;21.50;31.90;;;;;;5033642;28;44713;-85
2024/01/26 07:31:17;;;;;;;;;;;21.40;31.90;;;;;;5045249;28;45305;-83
2024/01/26 07:33:43;;;;;;;;;;;21.40;31.90;;;;;;5024725;28;45629;-84
2024/01/26 07:36:08;;;;;;;;;;;21.40;31.90;;;;;;5009396;28;45273;-82
2024/01/26 07:38:34;;;;;;;;;;;21.40;32.00;;;;;;5026806;28;45097;-83
2024/01/26 07:40:59;;;;;;;;;;;21.40;32.00;;;;;;5008637;28;45129;-82
2024/01/26 07:43:25;;;;;;;;;;;21.40;32.00;;;;;;5029844;28;45021;-82
2024/01/26 07:45:51;;;;;;;;;;;21.40;32.00;;;;;;5022448;28;46195;-82
2024/01/26 07:48:16;;;;;;;;;;;21.40;32.10;;;;;;5013706;28;45022;-85
2024/01/26 07:50:42;;;;;;;;;;;21.40;32.60;;;;;;5020079;28;45045;-83
2024/01/26 07:53:08;;;;;;;;;;;21.40;32.10;;;;;;5016817;28;45865;-82
2024/01/26 07:55:34;;;;;;;;;;;21.40;32.10;;;;;;5009334;28;46544;-86
2024/01/26 07:58:00;;;;;;;;;;;21.40;32.10;;;;;;5042502;28;44903;-83
2024/01/26 08:00:30;;;;;;;;;;;21.40;32.20;;;;;;5026621;28;45068;-82
2024/01/26 08:02:55;;;;;;;;;;;21.40;32.20;;;;;;5041988;28;45086;-82
2024/01/26 08:05:21;;;;;;;;;;;21.40;32.20;;;;;;5010174;28;46417;-82
2024/01/26 08:07:46;;;;;;;;;;;21.30;32.20;;;;;;5049947;28;45348;-84
2024/01/26 08:10:34;;;;;;;;;;;21.30;32.20;;;;;;5010301;28;44925;-83
2024/01/26 08:13:00;;;;;;;;;;;21.30;32.20;;;;;;5043213;28;44967;-82
2024/01/26 08:15:26;;;;;;;;;;;21.30;32.30;;;;;;5042989;28;46954;-84
2024/01/26 08:17:51;;;;;;;;;;;21.30;32.30;;;;;;5044690;28;44762;-83
2024/01/26 08:20:17;;;;;;;;;;;21.30;32.30;;;;;;5014058;28;45137;-83
2024/01/26 08:22:43;;;;;;;;;;;21.30;32.30;;;;;;5041805;28;44645;-82
2024/01/26 08:25:09;;;;;;;;;;;21.30;32.40;;;;;;5027045;28;46240;-85
2024/01/26 08:27:38;;;;;;;;;;;21.30;32.40;;;;;;5039817;28;45045;-82
2024/01/26 08:30:06;;;;;;;;;;;21.30;32.40;;;;;;5024469;28;45743;-85
2024/01/26 08:32:35;;;;;;;;;;;21.30;32.40;;;;;;5029400;28;45382;-82
2024/01/26 08:35:16;;;;;;;;;;;21.30;32.40;;;;;;5029954;28;46174;-83
2024/01/26 08:37:41;;;;;;;;;;;21.30;32.40;;;;;;5046166;28;45168;-82
2024/01/26 08:40:09;;;;;;;;;;;21.20;32.50;;;;;;5046772;28;44742;-83
2024/01/26 08:42:35;;;;;;;;;;;21.20;32.50;;;;;;5031112;28;45456;-85
2024/01/26 08:45:05;;;;;;;;;;;21.20;32.50;;;;;;5047255;28;45528;-83
2024/01/26 08:47:31;;;;;;;;;;;21.20;32.50;;;;;;5029472;28;44944;-83
2024/01/26 08:49:56;;;;;;;;;;;21.20;32.50;;;;;;5027333;28;44926;-84
2024/01/26 08:52:22;;;;;;;;;;;21.20;32.60;;;;;;5011406;28;46232;-84
2024/01/26 08:54:47;;;;;;;;;;;21.30;32.60;;;;;;5043638;28;45600;-82
2024/01/26 08:57:13;;;;;;;;;;;21.20;32.60;;;;;;5012075;28;45097;-82
2024/01/26 08:59:40;;;;;;;;;;;21.20;32.60;;;;;;5043757;28;45386;-82
2024/01/26 09:02:07;;;;;;;;;;;21.20;32.70;;;;;;5022357;28;45090;-83
2024/01/26 09:04:32;;;;;;;;;;;21.20;32.60;;;;;;5029517;28;46016;-83
2024/01/26 09:06:58;;;;;;;;;;;21.20;32.70;;;;;;5011241;28;45346;-83
2024/01/26 09:09:24;;;;;;;;;;;21.20;32.70;;;;;;5013948;28;45205;-83
2024/01/26 09:11:51;;;;;;;;;;;21.20;32.80;;;;;;5012571;28;44850;-83
2024/01/26 09:14:17;;;;;;;;;;;21.20;32.80;;;;;;5015672;28;46919;-85
2024/01/26 09:16:43;;;;;;;;;;;21.10;32.70;;;;;;5027584;28;45307;-82
2024/01/26 09:19:10;;;;;;;;;;;21.10;32.80;;;;;;5007405;28;45437;-83
2024/01/26 09:21:35;;;;;;;;;;;21.10;32.80;;;;;;5016061;28;44922;-86
2024/01/26 09:24:01;;;;;;;;;;;21.10;32.80;;;;;;5019756;28;47290;-83
2024/01/26 09:26:28;;;;;;;;;;;21.10;32.80;;;;;;5013503;28;45092;-83
2024/01/26 09:28:53;;;;;;;;;;;21.10;32.90;;;;;;5013898;28;44765;-82
2024/01/26 09:31:19;;;;;;;;;;;21.10;32.90;;;;;;5003994;28;45385;-83
2024/01/26 09:33:45;;;;;;;;;;;21.10;32.90;;;;;;5026899;28;46243;-82
2024/01/26 09:36:10;;;;;;;;;;;21.10;32.90;;;;;;5025219;28;44844;-84
2024/01/26 09:38:36;;;;;;;;;;;21.10;32.90;;;;;;5013519;28;45217;-82
2024/01/26 09:41:01;;;;;;;;;;;21.10;33.00;;;;;;5025896;28;45175;-82
2024/01/26 09:43:27;;;;;;;;;;;21.10;33.00;;;;;;5033121;28;45250;-83
2024/01/26 09:45:53;;;;;;;;;;;21.10;33.00;;;;;;5008196;28;45066;-83
2024/01/26 09:48:20;;;;;;;;;;;21.10;33.00;;;;;;5030847;28;44673;-82
2024/01/26 09:50:50;;;;;;;;;;;21.10;33.10;;;;;;5042772;28;44704;-83
2024/01/26 09:53:17;;;;;;;;;;;21.00;33.00;;;;;;5056890;28;46869;-83
2024/01/26 09:55:43;;;;;;;;;;;21.10;33.10;;;;;;5042435;28;44933;-83
2024/01/26 09:58:08;;;;;;;;;;;21.00;33.00;;;;;;5013364;28;45507;-82
2024/01/26 10:00:34;;;;;;;;;;;21.00;33.10;;;;;;5011107;28;45328;-83
2024/01/26 10:02:59;;;;;;;;;;;21.00;33.10;;;;;;5030299;28;45914;-83
2024/01/26 10:05:25;;;;;;;;;;;21.00;33.10;;;;;;5014962;28;45303;-82
2024/01/26 10:07:50;;;;;;;;;;;21.00;33.10;;;;;;5015152;28;44957;-82
2024/01/26 10:10:17;;;;;;;;;;;21.00;33.20;;;;;;5046389;28;44965;-83
2024/01/26 10:12:42;;;;;;;;;;;21.00;33.20;;;;;;5048760;28;45698;-83
2024/01/26 10:15:09;;;;;;;;;;;21.00;33.30;;;;;;5007490;28;45257;-84
2024/01/26 10:17:37;;;;;;;;;;;21.00;33.30;;;;;;5032216;28;44799;-82
2024/01/26 10:20:13;;;;;;;;;;;21.00;33.30;;;;;;5033708;28;45435;-85
2024/01/26 10:22:38;;;;;;;;;;;20.90;33.30;;;;;;5018321;28;46303;-83
2024/01/26 10:25:04;;;;;;;;;;;20.90;33.30;;;;;;5049711;28;44630;-84
2024/01/26 10:27:30;;;;;;;;;;;20.90;33.30;;;;;;5012410;28;45152;-82
2024/01/26 10:29:56;;;;;;;;;;;20.90;33.30;;;;;;5041006;28;46847;-85
2024/01/26 10:32:23;;;;;;;;;;;20.90;33.30;;;;;;5027726;28;45846;-82
2024/01/26 10:34:49;;;;;;;;;;;20.90;33.40;;;;;;5031707;28;45033;-82
2024/01/26 10:37:15;;;;;;;;;;;20.90;33.40;;;;;;5044041;28;45154;-85
2024/01/26 10:39:40;;;;;;;;;;;20.90;33.40;;;;;;5030686;28;44904;-83
2024/01/26 10:42:06;;;;;;;;;;;20.90;33.40;;;;;;5026916;28;45306;-83
2024/01/26 10:44:34;;;;;;;;;;;20.90;33.40;;;;;;5050919;28;45230;-83
2024/01/26 10:47:00;;;;;;;;;;;21.00;33.40;;;;;;5043086;28;44982;-82
2024/01/26 10:49:26;;;;;;;;;;;20.90;33.40;;;;;;5029483;28;45523;-82
2024/01/26 10:51:53;;;;;;;;;;;20.90;33.50;;;;;;5045286;28;45153;-82
2024/01/26 10:54:19;;;;;;;;;;;20.90;33.50;;;;;;5030962;28;44930;-82
2024/01/26 10:56:44;;;;;;;;;;;20.90;33.50;;;;;;5047787;28;45116;-83
2024/01/26 10:59:10;;;;;;;;;;;20.90;33.50;;;;;;5007535;28;45963;-83
2024/01/26 11:01:36;;;;;;;;;;;20.90;33.50;;;;;;5041392;28;45099;-82
2024/01/26 11:04:03;;;;;;;;;;;20.90;33.50;;;;;;5013534;28;44942;-83
2024/01/26 11:06:28;;;;;;;;;;;20.90;33.50;;;;;;5010904;28;45152;-84
2024/01/26 11:08:57;;;;;;;;;;;20.90;33.60;;;;;;5032459;28;44735;-82
2024/01/26 11:11:23;;;;;;;;;;;20.90;33.60;;;;;;5038095;28;45078;-82
2024/01/26 11:13:55;;;;;;;;;;;20.90;33.60;;;;;;5029717;28;44669;-83
2024/01/26 11:16:26;;;;;;;;;;;20.80;33.50;;;;;;5003716;28;45080;-83
2024/01/26 11:18:58;;;;;;;;;;;20.90;33.60;;;;;;5048043;28;45271;-83
2024/01/26 11:21:24;;;;;;;;;;;20.90;33.70;;;;;;5036667;28;45886;-83
2024/01/26 11:23:49;;;;;;;;;;;20.80;33.60;;;;;;5031880;28;45562;-83
2024/01/26 11:26:15;;;;;;;;;;;20.80;33.60;;;;;;5026985;28;45467;-83
2024/01/26 11:28:41;;;;;;;;;;;20.80;33.70;;;;;;5045572;28;45084;-82
2024/01/26 11:31:06;;;;;;;;;;;20.80;33.70;;;;;;5021424;28;45661;-83
2024/01/26 11:33:37;;;;;;;;;;;20.80;33.70;;;;;;5015386;28;45596;-83
2024/01/26 11:36:03;;;;;;;;;;;20.80;33.70;;;;;;5006511;28;45516;-82
2024/01/26 11:38:29;;;;;;;;;;;20.80;33.70;;;;;;5028392;28;45060;-84
2024/01/26 11:40:56;;;;;;;;;;;20.80;33.80;;;;;;5048614;28;45185;-82
2024/01/26 11:43:22;;;;;;;;;;;20.80;33.80;;;;;;5008969;28;44707;-82
2024/01/26 11:45:48;;;;;;;;;;;20.80;33.80;;;;;;5043261;28;45278;-82
2024/01/26 11:48:16;;;;;;;;;;;20.80;33.90;;;;;;5014026;28;45815;-84
2024/01/26 11:50:43;;;;;;;;;;;20.80;33.90;;;;;;5009169;28;47131;-82
2024/01/26 11:53:09;;;;;;;;;;;20.80;33.90;;;;;;5027076;28;45102;-83
2024/01/26 11:55:35;;;;;;;;;;;20.80;33.90;;;;;;5041768;28;45461;-86
2024/01/26 11:58:01;;;;;;;;;;;20.80;34.00;;;;;;5037797;28;45065;-82
2024/01/26 12:00:29;;;;;;;;;;;20.80;34.00;;;;;;5029716;28;46177;-81
2024/01/26 12:02:55;;;;;;;;;;;20.80;34.00;;;;;;5012117;28;44732;-83
2024/01/26 12:05:21;;;;;;;;;;;20.80;34.00;;;;;;5005392;28;45362;-82
2024/01/26 12:07:47;;;;;;;;;;;20.70;34.00;;;;;;5033682;28;44797;-83
2024/01/26 12:10:14;;;;;;;;;;;20.80;34.10;;;;;;5045873;28;45310;-82
2024/01/26 12:12:44;;;;;;;;;;;20.80;34.10;;;;;;5030450;28;44598;-83
2024/01/26 12:15:11;;;;;;;;;;;20.70;34.10;;;;;;5033877;28;60609;-83
2024/01/26 12:17:37;;;;;;;;;;;20.70;34.10;;;;;;5012796;28;45538;-83
2024/01/26 12:20:08;;;;;;;;;;;20.70;34.10;;;;;;5013706;28;47269;-87
2024/01/26 12:22:34;;;;;;;;;;;20.70;34.20;;;;;;5013297;28;45035;-82
2024/01/26 12:25:05;;;;;;;;;;;20.70;34.20;;;;;;5015391;28;45267;-82
2024/01/26 12:27:30;;;;;;;;;;;20.70;34.20;;;;;;5046793;28;44933;-85
2024/01/26 12:29:56;;;;;;;;;;;20.70;34.20;;;;;;5018723;28;47058;-83
2024/01/26 12:32:21;;;;;;;;;;;20.70;34.20;;;;;;5009183;28;45279;-83
2024/01/26 12:34:47;;;;;;;;;;;20.70;34.30;;;;;;5015692;28;44808;-83
2024/01/26 12:37:12;;;;;;;;;;;20.70;34.30;;;;;;5013965;28;44944;-83
2024/01/26 12:39:38;;;;;;;;;;;20.70;34.30;;;;;;5015333;28;47210;-83
2024/01/26 12:42:08;;;;;;;;;;;20.70;34.30;;;;;;5014224;28;45434;-83
2024/01/26 12:44:36;;;;;;;;;;;20.70;34.40;;;;;;5021441;28;45503;-84
2024/01/26 12:47:03;;;;;;;;;;;20.70;34.40;;;;;;5030109;28;45396;-83
2024/01/26 12:49:31;;;;;;;;;;;20.70;34.40;;;;;;5036417;28;45330;-82
2024/01/26 12:51:59;;;;;;;;;;;20.60;34.40;;;;;;5035277;23;46493;-82
2024/01/26 12:54:25;;;;;;;;;;;20.60;34.40;;;;;;5032026;28;45020;-82
2024/01/26 12:56:50;;;;;;;;;;;20.60;34.40;;;;;;5032747;28;45203;-82
2024/01/26 12:59:15;;;;;;;;;;;20.70;34.60;;;;;;5018308;28;46071;-83
2024/01/26 13:01:41;;;;;;;;;;;20.60;34.50;;;;;;4991164;28;44912;-83
2024/01/26 13:04:13;;;;;;;;;;;20.60;34.50;;;;;;5013970;28;44627;-83
2024/01/26 13:06:38;;;;;;;;;;;20.60;34.60;;;;;;5015449;28;45753;-84
2024/01/26 13:09:07;;;;;;;;;;;20.60;34.60;;;;;;5010773;28;45345;-83
2024/01/26 13:11:33;;;;;;;;;;;20.60;34.60;;;;;;5014113;28;44950;-83
2024/01/26 13:14:00;;;;;;;;;;;20.60;34.70;;;;;;5014924;28;46185;-82
2024/01/26 13:16:25;;;;;;;;;;;20.60;34.70;;;;;;5014877;28;44836;-83
2024/01/26 13:18:51;;;;;;;;;;;20.60;34.70;;;;;;4996212;28;47226;-83
2024/01/26 13:21:17;;;;;;;;;;;20.60;34.70;;;;;;5007270;28;45129;-83
2024/01/26 13:23:43;;;;;;;;;;;20.60;34.80;;;;;;5029079;28;44990;-82
2024/01/26 13:26:12;;;;;;;;;;;20.60;34.80;;;;;;5000569;28;45597;-82
2024/01/26 13:28:37;;;;;;;;;;;20.60;34.90;;;;;;5004178;28;47332;-81
2024/01/26 13:31:06;;;;;;;;;;;20.60;34.90;;;;;;4993405;28;44969;-82
2024/01/26 13:33:32;;;;;;;;;;;20.50;35.00;;;;;;5011036;28;44719;-82
2024/01/26 13:35:58;;;;;;;;;;;20.60;35.00;;;;;;4995159;28;45254;-82
2024/01/26 13:38:27;;;;;;;;;;;20.60;35.10;;;;;;4997621;28;46250;-82
2024/01/26 13:40:53;;;;;;;;;;;20.60;35.20;;;;;;4994543;28;45184;-83
2024/01/26 13:43:18;;;;;;;;;;;20.60;35.20;;;;;;4995811;28;45212;-83
2024/01/26 13:45:44;;;;;;;;;;;20.60;35.20;;;;;;5009887;28;45166;-83
2024/01/26 13:48:11;;;;;;;;;;;20.60;35.40;;;;;;5021757;28;45453;-83
2024/01/26 13:50:38;;;;;;;;;;;20.60;35.50;;;;;;4987536;28;45378;-82
2024/01/26 13:53:03;;;;;;;;;;;20.60;35.60;;;;;;4974340;28;44881;-85
2024/01/26 13:55:29;;;;;;;;;;;20.60;35.60;;;;;;4969571;28;45287;-82
2024/01/26 13:57:55;;;;;;;;;;;20.60;35.60;;;;;;4974603;28;46091;-83
2024/01/26 14:00:20;;;;;;;;;;;20.70;35.70;;;;;;4970813;28;44870;-82
2024/01/26 14:02:46;;;;;;;;;;;20.70;35.80;;;;;;4956838;28;45168;-82
2024/01/26 14:05:11;;;;;;;;;;;20.70;35.80;;;;;;4972525;28;45795;-82
2024/01/26 14:07:37;;;;;;;;;;;20.70;35.80;;;;;;4974561;28;45541;-82
2024/01/26 14:10:11;;;;;;;;;;;20.70;35.80;;;;;;4975071;28;45287;-84
2024/01/26 14:12:37;;;;;;;;;;;20.80;36.00;;;;;;4977469;28;44829;-82
2024/01/26 14:15:08;;;;;;;;;;;20.80;35.90;;;;;;4992236;28;44996;-86
2024/01/26 14:17:34;;;;;;;;;;;20.80;35.90;;;;;;4985314;28;45401;-83
2024/01/26 14:20:00;;;;;;;;;;;20.80;35.90;;;;;;4961070;28;44983;-82
2024/01/26 14:22:25;;;;;;;;;;;20.90;36.00;;;;;;4971500;28;50869;-82
2024/01/26 14:24:51;;;;;;;;;;;20.90;36.00;;;;;;4975071;28;45279;-82
2024/01/26 14:27:19;;;;;;;;;;;20.90;36.00;;;;;;4956890;28;45970;-82
2024/01/26 14:29:45;;;;;;;;;;;20.90;36.00;;;;;;4958963;28;45201;-82
2024/01/26 14:32:11;;;;;;;;;;;21.00;36.00;;;;;;4961079;28;45022;-86
2024/01/26 14:34:36;;;;;;;;;;;21.00;36.00;;;;;;4993111;28;45731;-83
2024/01/26 14:37:02;;;;;;;;;;;21.00;36.10;;;;;;4972421;28;45421;-82
2024/01/26 14:39:28;;;;;;;;;;;21.00;36.10;;;;;;4992764;28;45146;-83
2024/01/26 14:41:54;;;;;;;;;;;21.10;36.10;;;;;;5003221;28;44787;-83
2024/01/26 14:44:19;;;;;;;;;;;21.10;36.10;;;;;;4954444;28;45631;-82
2024/01/26 14:46:45;;;;;;;;;;;21.10;36.10;;;;;;4968413;28;45475;-83
2024/01/26 14:49:12;;;;;;;;;;;21.20;36.20;;;;;;4977342;28;45157;-83
2024/01/26 14:51:42;;;;;;;;;;;21.20;36.10;;;;;;4963507;23;45321;-64
2024/01/26 14:54:07;;;;;;;;;;;21.20;36.10;;;;;;5004223;28;45688;-63
2024/01/26 14:56:33;;;;;;;;;;;21.30;36.20;;;;;;4989210;28;47225;-63
2024/01/26 14:58:58;;;;;;;;;;;21.30;36.20;;;;;;5009908;28;45464;-63
2024/01/26 15:01:24;;;;;;;;;;;21.30;36.10;;;;;;5002419;28;45545;-64
2024/01/26 15:03:49;;;;;;;;;;;21.30;36.10;;;;;;5007402;28;45476;-63
2024/01/26 15:06:16;;;;;;;;;;;21.40;36.20;;;;;;5007220;28;45253;-63
2024/01/26 15:08:42;;;;;;;;;;;21.40;36.20;;;;;;5009697;28;45244;-63
2024/01/26 15:11:08;;;;;;;;;;;21.40;36.30;;;;;;5011018;28;44911;-62
2024/01/26 15:13:36;;;;;;;;;;;21.40;36.20;;;;;;4996567;28;44978;-62
2024/01/26 15:16:02;;;;;;;;;;;21.40;36.20;;;;;;5009519;28;46311;-63
2024/01/26 15:18:28;;;;;;;;;;;21.50;36.20;;;;;;4995755;28;45202;-63
2024/01/26 15:20:53;;;;;;;;;;;21.50;36.20;;;;;;4993051;28;45133;-63
2024/01/26 15:23:19;;;;;;;;;;;21.60;36.20;;;;;;5014464;28;45417;-63
2024/01/26 15:25:45;;;;;;;;;;;21.50;36.20;;;;;;5009996;28;44982;-63
2024/01/26 15:28:12;;;;;;;;;;;21.60;36.20;;;;;;5006189;28;44909;-62
2024/01/26 15:30:38;;;;;;;;;;;21.60;36.20;;;;;;5020148;28;45188;-63
2024/01/26 15:33:04;;;;;;;;;;;21.60;36.10;;;;;;5014016;28;46261;-63
2024/01/26 15:35:29;;;;;;;;;;;21.70;36.20;;;;;;5007749;28;46245;-63
2024/01/26 15:37:55;;;;;;;;;;;21.70;36.10;;;;;;5011443;28;45205;-62
2024/01/26 15:40:20;;;;;;;;;;;21.70;36.10;;;;;;5011623;28;44832;-63
2024/01/26 15:42:46;;;;;;;;;;;21.70;36.10;;;;;;4991459;28;45883;-63
2024/01/26 15:45:11;;;;;;;;;;;21.80;36.10;;;;;;5009355;28;48150;-63
2024/01/26 15:47:40;;;;;;;;;;;21.80;36.10;;;;;;5012172;28;45319;-63
2024/01/26 15:50:06;;;;;;;;;;;21.80;36.10;;;;;;5010948;28;45525;-64
2024/01/26 15:52:32;;;;;;;;;;;21.80;36.00;;;;;;5008983;28;44776;-63
2024/01/26 15:54:57;;;;;;;;;;;21.90;36.10;;;;;;4993095;28;45139;-63
2024/01/26 15:57:23;;;;;;;;;;;21.90;36.00;;;;;;4988436;28;45681;-63
2024/01/26 15:59:48;;;;;;;;;;;22.00;36.10;;;;;;4993501;28;45451;-63
2024/01/26 16:02:14;;;;;;;;;;;22.00;36.10;;;;;;4988786;28;44753;-63
2024/01/26 16:04:39;;;;;;;;;;;22.00;36.10;;;;;;4978782;28;46033;-63
2024/01/26 16:07:05;;;;;;;;;;;22.00;36.10;;;;;;4992983;28;44951;-63
2024/01/26 16:09:31;;;;;;;;;;;22.00;36.10;;;;;;5016488;28;45264;-63
2024/01/26 16:11:56;;;;;;;;;;;22.10;36.10;;;;;;4960845;28;45192;-63
2024/01/26 16:14:22;;;;;;;;;;;22.10;36.00;;;;;;4997477;28;46413;-63
2024/01/26 16:16:47;;;;;;;;;;;22.20;36.00;;;;;;4991885;28;45626;-63
2024/01/26 16:19:13;;;;;;;;;;;22.20;35.90;;;;;;4996401;28;45406;-62
2024/01/26 16:21:38;;;;;;;;;;;22.20;35.90;;;;;;4994401;28;45895;-63
2024/01/26 16:24:04;;;;;;;;;;;22.30;35.90;;;;;;4995733;28;46301;-63
2024/01/26 16:26:33;;;;;;;;;;;22.30;35.90;;;;;;4980258;28;45771;-63
2024/01/26 16:28:59;;;;;;;;;;;22.30;35.90;;;;;;5017731;28;45187;-62
2024/01/26 16:31:27;;;;;;;;;;;22.40;35.80;;;;;;5008227;28;45829;-63
2024/01/26 16:33:54;;;;;;;;;;;22.40;35.80;;;;;;4968232;28;45544;-62
2024/01/26 16:36:20;;;;;;;;;;;22.40;35.80;;;;;;4999083;28;44905;-63
2024/01/26 16:38:45;;;;;;;;;;;22.50;35.80;;;;;;4982728;28;45524;-63
2024/01/26 16:41:11;;;;;;;;;;;22.50;35.80;;;;;;4995073;28;46230;-63
2024/01/26 16:43:36;;;;;;;;;;;22.50;35.80;;;;;;5002561;28;46425;-63
2024/01/26 16:46:02;;;;;;;;;;;22.50;35.80;;;;;;5005921;28;44773;-63
2024/01/26 16:48:28;;;;;;;;;;;22.50;35.70;;;;;;4995948;28;45347;-63
2024/01/26 16:50:53;;;;;;;;;;;22.60;35.70;;;;;;4995498;28;45299;-63
2024/01/26 16:53:19;;;;;;;;;;;22.60;35.70;;;;;;5019205;28;46401;-62
2024/01/26 16:55:44;;;;;;;;;;;22.60;35.60;;;;;;4996240;28;45391;-63
2024/01/26 16:58:10;;;;;;;;;;;22.70;35.60;;;;;;5017522;28;45233;-63
2024/01/26 17:00:36;;;;;;;;;;;22.70;35.50;;;;;;5017032;28;45955;-63
2024/01/26 17:03:01;;;;;;;;;;;22.80;35.50;;;;;;5014958;28;45277;-63
2024/01/26 17:05:27;;;;;;;;;;;22.80;35.40;;;;;;5015257;28;45401;-63
2024/01/26 17:07:53;;;;;;;;;;;22.80;35.30;;;;;;5017140;28;45293;-63
2024/01/26 17:10:19;;;;;;;;;;;22.90;35.30;;;;;;5031152;28;45356;-64
2024/01/26 17:12:46;;;;;;;;;;;22.90;35.20;;;;;;5021349;28;46340;-63
2024/01/26 17:15:11;;;;;;;;;;;22.90;35.20;;;;;;5016012;28;45363;-63
2024/01/26 17:17:37;;;;;;;;;;;23.00;35.20;;;;;;5013263;28;45540;-64
2024/01/26 17:20:04;;;;;;;;;;;23.00;35.10;;;;;;5013124;28;45503;-64
2024/01/26 17:22:35;;;;;;;;;;;23.00;35.10;;;;;;4975398;28;46705;-63
2024/01/26 17:25:04;;;;;;;;;;;23.00;35.00;;;;;;4999545;28;45301;-63
2024/01/26 17:27:30;;;;;;;;;;;23.00;35.00;;;;;;4977595;28;44961;-63
2024/01/26 17:29:56;;;;;;;;;;;23.10;34.90;;;;;;5001028;28;45736;-63
2024/01/26 17:32:22;;;;;;;;;;;23.10;34.90;;;;;;5011138;28;45207;-63
2024/01/26 17:34:48;;;;;;;;;;;23.10;34.80;;;;;;5033040;28;45275;-63
2024/01/26 17:37:14;;;;;;;;;;;23.10;35.40;;;;;;5014412;28;45335;-63
2024/01/26 17:39:40;;;;;;;;;;;23.10;34.70;;;;;;5015707;28;45400;-63
2024/01/26 17:42:05;;;;;;;;;;;23.20;34.80;;;;;;4996890;28;47302;-63
2024/01/26 17:44:31;;;;;;;;;;;23.20;34.70;;;;;;5030752;28;45258;-64
2024/01/26 17:46:56;;;;;;;;;;;23.20;34.70;;;;;;5026360;28;45509;-64
2024/01/26 17:49:22;;;;;;;;;;;23.20;34.70;;;;;;5013999;28;44668;-62
2024/01/26 17:51:53;;;;;;;;;;;23.20;34.60;;;;;;5012972;28;45242;-63
2024/01/26 17:54:22;;;;;;;;;;;23.20;34.50;;;;;;5019591;28;45234;-63
2024/01/26 17:56:48;;;;;;;;;;;23.20;34.50;;;;;;5011813;28;44915;-63
2024/01/26 17:59:14;;;;;;;;;;;23.20;34.50;;;;;;5016750;28;44645;-63
2024/01/26 18:01:39;;;;;;;;;;;23.30;34.50;;;;;;5026148;28;46078;-63